Time;durP1;ratioP1;P1;durP2;ratioP2;P2;SDS_P1;SDS_P2;PMS_P1;PMS_P2;Temp;Humidity;BMP_temperature;BMP_pressure;BME280_temperature;BME280_humidity;BME280_pressure;Samples;Min_cycle;Max_cycle;Signal;HPM_P1;HPM_P2
2022/01/10 00:02:03;;;;;;;35.38;24.00;;;;;;;-0.07;80.64;97580.97;5021698;28;20041;-61
2022/01/10 00:04:28;;;;;;;36.70;24.35;;;;;;;0.04;79.81;97585.38;4980670;28;20450;-62
2022/01/10 00:06:54;;;;;;;40.50;26.67;;;;;;;0.01;79.56;97584.75;5026992;28;20025;-62
2022/01/10 00:09:19;;;;;;;36.65;24.45;;;;;;;-0.30;79.75;97543.38;5022761;28;20033;-62
2022/01/10 00:11:45;;;;;;;35.70;23.58;;;;;;;-0.09;80.23;97593.03;5025409;28;20029;-61
2022/01/10 00:14:10;;;;;;;34.90;23.38;;;;;;;-0.01;79.83;97589.97;5025246;28;20037;-61
2022/01/10 00:16:35;;;;;;;34.28;22.90;;;;;;;-0.43;80.41;97595.28;5025426;28;20045;-62
2022/01/10 00:19:01;;;;;;;33.08;22.15;;;;;;;-0.30;80.01;97602.13;4967276;28;20626;-61
2022/01/10 00:21:26;;;;;;;32.88;23.38;;;;;;;-0.63;81.97;97583.81;5020786;28;20214;-62
2022/01/10 00:23:52;;;;;;;37.08;24.30;;;;;;;-0.32;81.29;97606.53;5026234;28;20068;-61
2022/01/10 00:26:17;;;;;;;35.75;23.77;;;;;;;-0.42;80.79;97614.78;5015407;28;20054;-61
2022/01/10 00:28:43;;;;;;;39.47;24.98;;;;;;;-0.69;81.87;97540.81;5054549;28;20674;-61
2022/01/10 00:31:08;;;;;;;40.47;26.83;;;;;;;-0.29;81.30;97604.59;5026881;28;20029;-62
2022/01/10 00:33:33;;;;;;;38.30;25.42;;;;;;;-0.14;80.69;97607.06;5017669;28;20084;-62
2022/01/10 00:35:59;;;;;;;38.90;25.45;;;;;;;-0.20;80.51;97590.41;4976001;28;20112;-61
2022/01/10 00:38:24;;;;;;;37.00;25.67;;;;;;;-0.15;80.10;97598.53;5038459;28;20033;-62
2022/01/10 00:40:51;;;;;;;37.83;24.92;;;;;;;-0.39;80.38;97557.56;5018925;28;20100;-62
2022/01/10 00:43:19;;;;;;;37.47;25.05;;;;;;;-0.44;79.93;97555.34;5053999;28;20032;-62
2022/01/10 00:45:45;;;;;;;37.15;25.30;;;;;;;-0.23;79.53;97598.25;5007146;28;20044;-62
2022/01/10 00:48:10;;;;;;;39.08;26.15;;;;;;;-0.25;80.29;97595.78;5023070;28;20431;-61
2022/01/10 00:50:36;;;;;;;42.03;27.98;;;;;;;-0.63;80.39;97553.16;4993129;28;20269;-61
2022/01/10 00:53:02;;;;;;;40.08;27.08;;;;;;;-0.39;79.84;97613.75;4978483;28;20037;-62
2022/01/10 00:55:29;;;;;;;38.92;25.48;;;;;;;-0.78;80.98;97616.25;5022365;28;20175;-62
2022/01/10 00:57:55;;;;;;;35.08;23.80;;;;;;;-0.70;81.60;97612.38;5004525;28;20033;-62
2022/01/10 01:00:21;;;;;;;35.05;24.42;;;;;;;-0.63;81.32;97616.19;5022679;28;20076;-61
2022/01/10 01:02:47;;;;;;;36.22;24.17;;;;;;;-0.89;81.46;97559.16;5021215;28;20117;-62
2022/01/10 01:05:16;;;;;;;34.70;23.30;;;;;;;-0.50;80.94;97614.47;5049805;28;20065;-62
2022/01/10 01:07:42;;;;;;;36.90;25.47;;;;;;;-0.51;81.09;97615.41;4975971;28;20045;-62
2022/01/10 01:12:49;;;;;;;39.42;26.70;;;;;;;-0.74;80.64;97572.66;5021260;28;20244;-61
2022/01/10 01:15:44;;;;;;;40.78;26.52;;;;;;;-0.40;79.90;97623.16;5023205;28;20128;-62
2022/01/10 01:25:56;;;;;;;36.90;24.60;;;;;;;-0.50;80.15;97655.31;5049944;28;20076;-62
2022/01/10 01:28:22;;;;;;;36.70;24.52;;;;;;;-0.48;80.13;97673.09;5023022;28;20882;-62
2022/01/10 01:30:47;;;;;;;35.97;24.92;;;;;;;-0.55;80.21;97661.66;5021565;28;20033;-62
2022/01/10 01:33:15;;;;;;;36.70;24.85;;;;;;;-0.68;80.47;97676.94;5021219;28;20033;-62
2022/01/10 01:35:40;;;;;;;40.33;25.45;;;;;;;-0.73;80.97;97667.03;5023121;28;20136;-61
2022/01/10 01:38:07;;;;;;;36.85;24.65;;;;;;;-0.63;80.30;97680.81;4989028;28;21462;-62
2022/01/10 01:40:33;;;;;;;37.00;25.00;;;;;;;-0.80;79.85;97681.09;5011427;28;20527;-61
2022/01/10 01:42:59;;;;;;;37.92;24.63;;;;;;;-0.94;81.25;97665.81;5023647;28;20120;-62
2022/01/10 01:45:45;;;;;;;34.58;23.90;;;;;;;-0.79;80.92;97675.84;5023639;28;20040;-61
2022/01/10 01:48:10;;;;;;;36.63;24.27;;;;;;;-0.76;81.08;97684.28;5022811;28;20041;-62
2022/01/10 01:50:36;;;;;;;36.13;24.77;;;;;;;-1.11;79.60;97618.38;5023787;28;20025;-60
2022/01/10 01:53:02;;;;;;;35.42;23.58;;;;;;;-0.73;80.13;97677.25;5018142;28;20103;-62
2022/01/10 01:55:28;;;;;;;35.95;24.85;;;;;;;-0.71;79.69;97682.22;4985900;28;20431;-62
2022/01/10 01:57:54;;;;;;;36.15;23.75;;;;;;;-0.78;79.92;97676.69;5006024;28;20049;-62
2022/01/10 02:00:22;;;;;;;37.28;24.92;;;;;;;-0.67;80.68;97684.50;5024053;28;20033;-62
2022/01/10 02:02:48;;;;;;;37.47;24.00;;;;;;;-0.75;79.92;97685.88;5020582;28;20021;-62
2022/01/10 02:05:14;;;;;;;37.45;24.55;;;;;;;-0.79;80.08;97685.25;5021326;28;20559;-62
2022/01/10 02:07:39;;;;;;;34.83;23.42;;;;;;;-1.10;79.96;97623.38;5022647;28;20037;-62
2022/01/10 02:10:06;;;;;;;36.95;24.23;;;;;;;-0.69;80.05;97686.34;4985432;28;20029;-62
2022/01/10 02:12:31;;;;;;;37.15;24.83;;;;;;;-0.85;80.64;97685.66;5022840;28;20125;-62
2022/01/10 02:14:57;;;;;;;36.45;24.50;;;;;;;-0.91;79.97;97689.41;5019273;28;20116;-62
2022/01/10 02:17:33;;;;;;;35.38;24.52;;;;;;;-1.25;80.46;97630.25;5024054;28;20025;-62
2022/01/10 02:20:08;;;;;;;32.95;23.08;;;;;;;-0.89;79.85;97671.47;5006640;28;20309;-62
2022/01/10 02:22:37;;;;;;;32.70;22.25;;;;;;;-1.12;81.40;97681.34;5020107;28;20573;-62
2022/01/10 02:25:03;;;;;;;34.15;23.10;;;;;;;-1.21;80.99;97677.63;4982486;28;20039;-61
2022/01/10 02:27:28;;;;;;;35.45;23.40;;;;;;;-1.32;81.05;97687.66;5000682;28;20427;-62
2022/01/10 02:29:53;;;;;;;35.78;22.77;;;;;;;-1.57;81.70;97689.16;5028031;28;20686;-65
2022/01/10 02:32:20;;;;;;;32.78;22.42;;;;;;;-1.52;81.87;97685.50;5023531;28;20053;-62
2022/01/10 02:34:46;;;;;;;31.00;21.25;;;;;;;-2.00;82.21;97591.47;5022025;28;20040;-62
2022/01/10 02:37:11;;;;;;;32.58;23.05;;;;;;;-1.32;81.78;97687.66;5023580;28;20021;-62
2022/01/10 02:39:37;;;;;;;35.53;22.50;;;;;;;-1.20;81.61;97686.91;5019236;28;20135;-62
2022/01/10 02:42:03;;;;;;;33.80;21.13;;;;;;;-1.21;81.28;97684.47;4969100;28;20708;-62
2022/01/10 02:44:29;;;;;;;32.40;21.38;;;;;;;-1.31;81.39;97689.31;5051398;28;20614;-62
2022/01/10 02:46:55;;;;;;;32.03;21.70;;;;;;;-1.18;80.92;97697.03;5021221;28;20686;-62
2022/01/10 02:49:26;;;;;;;32.42;21.00;;;;;;;-1.19;80.82;97700.47;5021942;28;20029;-62
2022/01/10 02:51:55;;;;;;;31.55;20.95;;;;;;;-1.16;79.83;97688.38;5019242;28;20040;-62
2022/01/10 02:54:24;;;;;;;31.92;20.92;;;;;;;-1.86;80.22;97647.53;5022900;28;20128;-62
2022/01/10 02:56:56;;;;;;;27.65;19.48;;;;;;;-1.30;81.31;97703.69;5013536;28;20021;-62
2022/01/10 02:59:23;;;;;;;28.95;18.63;;;;;;;-1.16;80.68;97705.41;5018123;28;20751;-62
2022/01/10 03:01:49;;;;;;;32.10;20.98;;;;;;;-1.14;80.71;97713.78;5014604;28;20043;-62
2022/01/10 03:04:15;;;;;;;30.20;20.17;;;;;;;-1.08;79.70;97713.41;5016580;28;20021;-62
2022/01/10 03:06:41;;;;;;;30.27;19.23;;;;;;;-1.26;80.22;97692.41;5014862;28;20365;-62
2022/01/10 03:09:07;;;;;;;31.58;20.08;;;;;;;-1.22;80.96;97704.06;5005487;28;20033;-62
2022/01/10 03:11:33;;;;;;;32.22;20.90;;;;;;;-1.23;80.28;97699.84;5022158;28;20618;-62
2022/01/10 03:13:59;;;;;;;32.58;21.23;;;;;;;-1.24;80.30;97698.22;5004943;28;20653;-62
2022/01/10 03:16:25;;;;;;;32.22;21.10;;;;;;;-1.17;79.94;97696.09;5017999;28;20091;-62
2022/01/10 03:18:50;;;;;;;30.25;20.15;;;;;;;-1.25;80.82;97698.31;5021948;28;20035;-62
2022/01/10 03:21:19;;;;;;;32.17;21.85;;;;;;;-1.31;81.49;97709.72;5019811;28;20068;-62
2022/01/10 03:23:45;;;;;;;30.85;19.92;;;;;;;-1.22;82.49;97690.50;5022058;28;20033;-62
2022/01/10 03:26:10;;;;;;;29.67;19.95;;;;;;;-1.22;81.28;97698.13;5021692;28;20026;-62
2022/01/10 03:28:36;;;;;;;28.58;19.08;;;;;;;-1.22;81.97;97693.84;4974262;28;20128;-62
2022/01/10 03:31:01;;;;;;;29.10;19.25;;;;;;;-1.25;82.80;97681.28;5019341;28;20029;-62
2022/01/10 03:33:26;;;;;;;28.35;19.85;;;;;;;-1.22;82.36;97695.59;5022826;28;20039;-62
2022/01/10 03:35:52;;;;;;;30.02;20.20;;;;;;;-1.33;81.68;97696.22;5021928;28;20065;-62
2022/01/10 03:38:18;;;;;;;28.33;19.70;;;;;;;-1.75;82.86;97647.72;5019823;28;20029;-62
2022/01/10 03:40:43;;;;;;;28.45;19.02;;;;;;;-1.18;82.73;97709.78;5035050;28;20515;-62
2022/01/10 03:43:09;;;;;;;31.73;19.65;;;;;;;-1.21;82.27;97684.47;5004891;28;20030;-62
2022/01/10 03:45:34;;;;;;;28.77;18.83;;;;;;;-1.07;81.35;97715.06;5009058;28;20112;-62
2022/01/10 03:48:00;;;;;;;29.90;18.73;;;;;;;-1.06;81.65;97713.31;5020064;28;20037;-62
2022/01/10 03:50:25;;;;;;;27.75;19.08;;;;;;;-1.01;81.91;97716.41;5000817;28;20348;-62
2022/01/10 03:52:51;;;;;;;27.40;18.15;;;;;;;-1.28;82.10;97665.34;5017245;28;20103;-62
2022/01/10 03:55:16;;;;;;;28.33;18.63;;;;;;;-1.13;81.25;97710.34;5019468;28;20045;-62
2022/01/10 03:57:42;;;;;;;28.40;18.35;;;;;;;-1.02;83.02;97728.34;5020663;28;20662;-62
2022/01/10 04:00:08;;;;;;;28.55;17.50;;;;;;;-0.90;82.73;97725.97;5001443;28;20399;-62
2022/01/10 04:02:35;;;;;;;25.15;17.70;;;;;;;-0.90;82.62;97724.22;5020114;28;20046;-63
2022/01/10 04:05:01;;;;;;;26.13;17.00;;;;;;;-0.87;82.28;97724.03;5049768;28;20034;-62
2022/01/10 04:07:26;;;;;;;26.65;16.85;;;;;;;-0.92;82.17;97710.72;5005212;28;20034;-62
2022/01/10 04:09:52;;;;;;;26.02;17.20;;;;;;;-1.20;82.34;97668.25;5022035;28;20036;-62
2022/01/10 04:12:18;;;;;;;27.92;17.20;;;;;;;-0.91;82.88;97726.84;5005956;28;20030;-62
2022/01/10 04:14:43;;;;;;;25.13;16.83;;;;;;;-0.88;82.94;97721.56;5018918;28;20030;-62
2022/01/10 04:17:09;;;;;;;25.73;17.30;;;;;;;-1.05;83.93;97710.66;4983827;28;20057;-62
2022/01/10 04:19:34;;;;;;;23.63;14.23;;;;;;;-0.84;85.57;97726.41;5005619;28;20082;-62
2022/01/10 04:21:59;;;;;;;24.42;15.02;;;;;;;-0.70;85.90;97722.16;5022557;28;20121;-62
2022/01/10 04:24:25;;;;;;;23.20;14.80;;;;;;;-0.47;85.63;97731.75;5023975;28;20116;-62
2022/01/10 04:26:50;;;;;;;23.17;14.40;;;;;;;-0.28;84.23;97726.28;5025275;28;20037;-62
2022/01/10 04:29:16;;;;;;;21.00;14.05;;;;;;;-0.15;83.66;97720.38;5025880;28;20120;-62
2022/01/10 04:31:41;;;;;;;20.48;12.93;;;;;;;-0.12;84.05;97715.91;4978365;28;20467;-62
2022/01/10 04:34:06;;;;;;;21.40;13.10;;;;;;;-0.03;82.87;97719.59;5020369;28;20065;-62
2022/01/10 04:36:32;;;;;;;22.33;13.60;;;;;;;-0.03;82.96;97720.41;5024504;28;20133;-62
2022/01/10 04:38:57;;;;;;;20.00;13.23;;;;;;;-0.26;82.02;97672.53;5048588;28;20036;-62
2022/01/10 04:41:23;;;;;;;19.42;12.60;;;;;;;0.09;82.06;97718.81;5009715;28;20053;-62
2022/01/10 04:43:48;;;;;;;20.77;12.75;;;;;;;0.16;80.17;97708.97;5027120;28;20029;-62
2022/01/10 04:46:13;;;;;;;16.95;12.10;;;;;;;0.26;79.68;97714.31;5020935;28;20056;-62
2022/01/10 04:48:39;;;;;;;19.27;11.73;;;;;;;0.03;78.85;97670.63;4972183;28;20130;-62
2022/01/10 04:51:12;;;;;;;17.73;11.38;;;;;;;0.16;79.29;97704.69;5007265;28;20329;-62
2022/01/10 04:53:50;;;;;;;17.55;11.73;;;;;;;0.22;79.21;97718.81;5026309;28;20033;-62
2022/01/10 04:56:16;;;;;;;18.63;10.82;;;;;;;-0.17;79.52;97658.34;5024162;28;20120;-62
2022/01/10 04:58:42;;;;;;;19.17;12.38;;;;;;;0.30;78.84;97705.50;5022562;28;20029;-62
2022/01/10 05:01:09;;;;;;;18.10;11.73;;;;;;;0.29;79.36;97714.94;5007064;28;20029;-62
2022/01/10 05:03:35;;;;;;;16.70;10.90;;;;;;;0.25;80.33;97718.59;5000643;28;20509;-62
2022/01/10 05:06:01;;;;;;;16.60;10.68;;;;;;;0.15;80.01;97715.03;5022711;28;20029;-65
2022/01/10 05:08:26;;;;;;;15.50;10.35;;;;;;;0.23;80.09;97719.63;5024941;28;20534;-62
2022/01/10 05:10:52;;;;;;;18.67;11.27;;;;;;;0.30;82.22;97726.78;5021455;28;20036;-62
2022/01/10 05:13:18;;;;;;;15.98;10.70;;;;;;;0.50;81.62;97728.00;5021646;28;20038;-62
2022/01/10 05:15:46;;;;;;;12.63;8.43;;;;;;;0.52;81.76;97710.00;5025272;28;20596;-62
2022/01/10 05:18:13;;;;;;;16.70;10.25;;;;;;;0.54;82.00;97719.19;5020032;28;20025;-62
2022/01/10 05:20:38;;;;;;;18.15;10.25;;;;;;;0.67;82.63;97720.94;5033158;28;20064;-62
2022/01/10 05:23:03;;;;;;;14.77;10.25;;;;;;;0.66;82.54;97721.88;5023301;28;20053;-62
2022/01/10 05:25:29;;;;;;;17.02;9.70;;;;;;;0.35;80.94;97678.72;5024693;28;20482;-62
2022/01/10 05:27:54;;;;;;;14.77;9.23;;;;;;;0.79;81.13;97729.53;5024431;28;20028;-62
2022/01/10 05:30:20;;;;;;;15.52;10.45;;;;;;;0.75;81.31;97737.41;5022127;28;20045;-62
2022/01/10 05:32:46;;;;;;;15.55;9.02;;;;;;;0.41;79.20;97672.34;5023363;28;20030;-62
2022/01/10 05:35:11;;;;;;;12.90;8.60;;;;;;;0.56;77.70;97693.50;5011529;28;20108;-62
2022/01/10 05:37:37;;;;;;;14.38;8.20;;;;;;;0.42;78.37;97657.81;5005491;28;20038;-62
2022/01/10 05:40:03;;;;;;;13.30;8.30;;;;;;;0.74;76.44;97724.72;5023084;28;20448;-62
2022/01/10 05:42:28;;;;;;;12.63;7.40;;;;;;;0.74;75.82;97712.72;5026497;28;20025;-61
2022/01/10 05:44:54;;;;;;;12.20;6.82;;;;;;;0.57;74.79;97690.03;5022154;28;20416;-62
2022/01/10 05:47:19;;;;;;;12.85;7.55;;;;;;;0.84;73.43;97720.59;5036291;28;20038;-61
2022/01/10 05:49:48;;;;;;;9.50;5.65;;;;;;;0.76;68.84;97674.25;5024014;28;20181;-62
2022/01/10 05:52:14;;;;;;;9.95;5.75;;;;;;;1.27;66.20;97716.78;5011536;28;20033;-62
2022/01/10 05:54:39;;;;;;;9.82;5.22;;;;;;;1.34;66.18;97723.13;5021816;28;20033;-62
2022/01/10 05:57:06;;;;;;;9.95;5.60;;;;;;;1.33;65.61;97711.22;5019869;28;20508;-62
2022/01/10 05:59:32;;;;;;;11.05;6.20;;;;;;;1.38;74.34;97723.72;5023227;28;20056;-62
2022/01/10 06:01:58;;;;;;;13.27;7.63;;;;;;;1.21;73.92;97733.41;5022430;28;20029;-62
2022/01/10 06:04:24;;;;;;;12.25;7.07;;;;;;;1.04;74.75;97731.19;5023192;28;20811;-64
2022/01/10 06:06:50;;;;;;;12.50;7.72;;;;;;;0.97;74.18;97748.75;5004208;28;20052;-62
2022/01/10 06:09:15;;;;;;;10.90;6.82;;;;;;;0.90;74.01;97732.16;5022235;28;20025;-62
2022/01/10 06:11:41;;;;;;;11.68;6.00;;;;;;;0.53;74.51;97688.59;5023957;28;20112;-62
2022/01/10 06:14:07;;;;;;;12.55;7.30;;;;;;;0.48;74.71;97686.38;5020199;28;20718;-62
2022/01/10 06:16:33;;;;;;;9.65;6.18;;;;;;;0.76;75.24;97744.16;5022945;28;20120;-61
2022/01/10 06:18:59;;;;;;;10.40;6.55;;;;;;;0.73;74.52;97746.94;5005624;28;20021;-62
2022/01/10 06:21:24;;;;;;;11.48;6.70;;;;;;;0.68;74.84;97751.53;5022263;28;20041;-62
2022/01/10 06:23:50;;;;;;;11.07;7.07;;;;;;;0.36;74.53;97710.22;5008494;28;20025;-62
2022/01/10 06:26:15;;;;;;;11.45;6.55;;;;;;;0.58;74.24;97737.72;5003493;28;20026;-62
2022/01/10 06:28:40;;;;;;;9.82;5.80;;;;;;;0.70;73.43;97741.19;5014343;28;20040;-61
2022/01/10 06:31:06;;;;;;;9.98;5.90;;;;;;;0.74;73.60;97746.00;5001791;28;20028;-62
2022/01/10 06:33:32;;;;;;;12.20;6.50;;;;;;;0.66;75.28;97752.56;5021222;28;20416;-62
2022/01/10 06:35:57;;;;;;;12.15;7.18;;;;;;;0.59;75.56;97753.91;5014128;28;20036;-63
2022/01/10 06:38:22;;;;;;;11.32;7.70;;;;;;;0.66;75.93;97767.94;5022301;28;20041;-62
2022/01/10 06:40:48;;;;;;;11.18;7.43;;;;;;;0.63;75.99;97760.44;5021665;28;20661;-62
2022/01/10 06:43:13;;;;;;;11.63;7.78;;;;;;;0.57;76.50;97756.56;4992212;28;20054;-62
2022/01/10 06:45:39;;;;;;;13.27;8.32;;;;;;;0.13;77.29;97715.13;5008441;28;20087;-62
2022/01/10 06:48:05;;;;;;;11.80;6.95;;;;;;;0.10;76.88;97722.97;5012502;28;20048;-62
2022/01/10 06:50:30;;;;;;;11.98;7.50;;;;;;;0.41;77.20;97767.00;5006115;28;20165;-62
2022/01/10 06:52:57;;;;;;;10.88;6.60;;;;;;;0.35;76.50;97778.44;5012717;28;20179;-62
2022/01/10 06:55:22;;;;;;;12.02;6.35;;;;;;;0.21;75.34;97739.38;5009790;28;20432;-62
2022/01/10 06:57:48;;;;;;;11.65;6.25;;;;;;;0.60;74.31;97781.09;5032011;28;20025;-62
2022/01/10 07:00:14;;;;;;;10.68;5.95;;;;;;;0.61;74.34;97788.69;5013773;28;20108;-62
2022/01/10 07:02:39;;;;;;;11.30;6.28;;;;;;;0.61;74.16;97806.59;5018483;28;20090;-63
2022/01/10 07:05:05;;;;;;;11.18;7.38;;;;;;;0.40;76.18;97801.16;5023202;28;20033;-62
2022/01/10 07:07:31;;;;;;;29.27;12.88;;;;;;;0.40;75.22;97803.69;5024724;28;20479;-62
2022/01/10 07:09:56;;;;;;;21.27;11.20;;;;;;;0.12;75.93;97785.06;4994559;28;20026;-62
2022/01/10 07:12:21;;;;;;;15.63;8.63;;;;;;;0.26;75.83;97796.94;5010355;28;20043;-62
2022/01/10 07:14:47;;;;;;;20.38;10.15;;;;;;;0.26;75.87;97812.28;5011913;28;20033;-62
2022/01/10 07:17:12;;;;;;;24.63;11.10;;;;;;;-0.22;76.27;97754.00;5018356;28;20461;-62
2022/01/10 07:19:38;;;;;;;20.65;9.73;;;;;;;-0.38;76.60;97755.91;5023921;28;20037;-62
2022/01/10 07:22:04;;;;;;;18.10;8.30;;;;;;;-0.08;77.27;97805.97;5020608;28;20025;-62
2022/01/10 07:24:29;;;;;;;16.98;9.13;;;;;;;-0.02;76.84;97808.13;5020398;28;20036;-62
2022/01/10 07:26:55;;;;;;;17.65;9.80;;;;;;;-0.34;76.79;97772.66;4975734;28;20033;-62
2022/01/10 07:29:20;;;;;;;18.90;9.98;;;;;;;0.06;76.43;97831.47;5014680;28;20029;-62
2022/01/10 07:31:45;;;;;;;13.65;7.03;;;;;;;0.07;76.35;97820.31;5017105;28;20454;-62
2022/01/10 07:34:14;;;;;;;6.72;3.90;;;;;;;0.55;75.39;97807.81;5015111;28;20030;-62
2022/01/10 07:36:40;;;;;;;8.90;5.32;;;;;;;0.82;74.50;97816.31;5022890;28;20192;-62
2022/01/10 07:39:05;;;;;;;9.52;5.43;;;;;;;0.60;74.95;97781.91;5006379;28;20229;-62
2022/01/10 07:41:30;;;;;;;8.40;4.07;;;;;;;0.99;74.74;97839.06;5017186;28;20136;-62
2022/01/10 07:43:56;;;;;;;9.98;5.00;;;;;;;1.00;74.17;97840.66;5009711;28;20034;-62
2022/01/10 07:46:22;;;;;;;10.00;5.40;;;;;;;0.99;74.07;97836.50;5013280;28;20038;-62
2022/01/10 07:48:47;;;;;;;9.40;5.43;;;;;;;0.66;72.79;97788.41;5012655;28;20542;-62
2022/01/10 07:51:13;;;;;;;8.00;4.63;;;;;;;0.67;73.20;97787.47;5014179;28;20033;-61
2022/01/10 07:53:40;;;;;;;8.77;4.30;;;;;;;1.09;72.91;97857.97;5015614;28;20034;-62
2022/01/10 07:56:06;;;;;;;7.18;3.88;;;;;;;1.17;73.19;97854.91;5015878;28;20113;-62
2022/01/10 07:58:32;;;;;;;8.88;5.00;;;;;;;1.15;71.58;97846.53;5030786;28;20074;-62
2022/01/10 08:00:57;;;;;;;8.00;4.40;;;;;;;1.27;71.72;97858.47;5008092;28;20038;-62
2022/01/10 08:03:23;;;;;;;9.18;4.18;;;;;;;1.48;68.68;97865.63;4973350;28;20049;-62
2022/01/10 08:05:49;;;;;;;9.88;4.68;;;;;;;1.19;69.46;97803.56;5013878;28;20087;-62
2022/01/10 08:08:14;;;;;;;7.55;4.47;;;;;;;1.13;71.88;97810.78;5024231;28;20022;-62
2022/01/10 08:10:40;;;;;;;7.45;4.20;;;;;;;1.52;69.96;97859.34;5004607;28;20500;-62
2022/01/10 08:13:05;;;;;;;8.02;4.18;;;;;;;1.59;68.26;97852.88;5024283;28;20033;-62
2022/01/10 08:15:30;;;;;;;7.93;3.88;;;;;;;1.58;67.59;97863.25;5005765;28;20465;-62
2022/01/10 08:17:57;;;;;;;6.43;3.35;;;;;;;1.76;66.43;97879.09;4983793;28;21521;-62
2022/01/10 08:20:22;;;;;;;6.53;3.45;;;;;;;1.65;66.93;97856.75;5021904;28;20033;-62
2022/01/10 08:22:48;;;;;;;8.05;4.38;;;;;;;1.67;69.53;97878.78;5030367;28;20388;-61
2022/01/10 08:25:13;;;;;;;8.07;3.95;;;;;;;1.68;70.68;97883.00;5020962;28;20035;-62
2022/01/10 08:27:39;;;;;;;7.20;3.22;;;;;;;1.98;66.61;97881.75;5016429;28;20327;-62
2022/01/10 08:30:06;;;;;;;7.05;3.90;;;;;;;2.03;68.99;97887.41;5025265;28;20385;-61
2022/01/10 08:32:32;;;;;;;6.18;2.92;;;;;;;2.14;63.18;97875.56;5023241;28;20037;-62
2022/01/10 08:34:58;;;;;;;6.20;2.80;;;;;;;1.80;62.02;97834.34;4968153;28;20037;-61
2022/01/10 08:37:24;;;;;;;7.20;3.00;;;;;;;2.18;62.79;97887.22;5017959;28;20038;-61
2022/01/10 08:39:51;;;;;;;7.18;2.63;;;;;;;2.30;62.76;97889.75;5018208;28;20435;-62
2022/01/10 08:42:20;;;;;;;5.63;2.58;;;;;;;2.37;60.03;97884.16;5015496;28;20038;-61
2022/01/10 08:44:46;;;;;;;5.88;2.80;;;;;;;2.44;58.57;97883.59;5022011;28;20045;-62
2022/01/10 08:47:12;;;;;;;6.78;2.22;;;;;;;2.63;54.85;97884.84;5027512;28;20025;-62
2022/01/10 08:49:38;;;;;;;6.28;2.40;;;;;;;2.75;54.94;97883.09;5020402;28;20026;-63
2022/01/10 08:52:04;;;;;;;5.68;2.10;;;;;;;2.52;52.33;97815.50;5021262;28;20041;-62
2022/01/10 08:54:29;;;;;;;5.68;2.10;;;;;;;3.10;50.92;97880.47;5018259;28;20424;-61
2022/01/10 08:56:55;;;;;;;5.70;2.45;;;;;;;3.17;51.06;97879.06;5013923;28;20037;-62
2022/01/10 08:59:20;;;;;;;5.40;2.08;;;;;;;3.26;50.57;97877.56;5015000;28;20038;-62
2022/01/10 09:01:46;;;;;;;4.55;1.77;;;;;;;3.33;50.58;97871.03;5013941;28;20571;-61
2022/01/10 09:04:16;;;;;;;6.10;1.83;;;;;;;3.47;49.00;97882.84;5017813;28;20710;-61
2022/01/10 09:06:46;;;;;;;3.92;1.52;;;;;;;3.68;47.75;97884.69;5017474;28;20480;-62
2022/01/10 09:09:12;;;;;;;3.97;1.40;;;;;;;3.66;46.82;97872.75;4999176;28;20384;-61
2022/01/10 09:11:38;;;;;;;4.18;1.42;;;;;;;3.65;45.74;97834.28;5023280;28;20570;-62
2022/01/10 09:14:04;;;;;;;5.55;1.38;;;;;;;3.97;45.54;97890.94;5016943;28;20045;-62
2022/01/10 09:16:30;;;;;;;3.17;1.20;;;;;;;4.18;44.60;97897.88;4988178;28;20484;-62
2022/01/10 09:18:55;;;;;;;3.90;1.55;;;;;;;4.35;43.77;97907.66;5021033;28;20068;-62
2022/01/10 09:21:21;;;;;;;3.85;1.30;;;;;;;4.35;43.15;97888.84;5023221;28;20030;-61
2022/01/10 09:23:46;;;;;;;3.88;1.45;;;;;;;4.25;44.58;97909.31;5024204;28;20538;-62
2022/01/10 09:26:11;;;;;;;5.28;1.65;;;;;;;4.13;44.91;97908.56;5021353;28;20060;-61
2022/01/10 09:28:37;;;;;;;3.80;1.50;;;;;;;4.17;45.16;97915.09;5025070;28;20057;-62
2022/01/10 09:31:02;;;;;;;4.88;1.40;;;;;;;4.10;45.45;97910.56;5014626;28;20036;-62
2022/01/10 09:33:28;;;;;;;3.70;1.30;;;;;;;4.18;44.09;97916.75;5006745;28;20053;-62
2022/01/10 09:35:53;;;;;;;4.60;1.40;;;;;;;4.35;43.02;97917.16;5003593;28;20116;-61
2022/01/10 09:38:19;;;;;;;4.47;1.40;;;;;;;4.06;43.65;97870.56;5024658;28;20384;-62
2022/01/10 09:40:44;;;;;;;5.93;1.38;;;;;;;4.25;44.06;97929.91;5022799;28;20041;-62
2022/01/10 09:43:10;;;;;;;4.93;1.20;;;;;;;4.32;43.62;97937.97;5022795;28;20037;-62
2022/01/10 09:45:36;;;;;;;5.63;1.17;;;;;;;4.34;43.80;97933.53;5023797;28;20759;-62
2022/01/10 09:48:02;;;;;;;4.63;1.30;;;;;;;4.36;43.74;97939.38;5016010;28;20033;-62
2022/01/10 09:50:27;;;;;;;3.15;1.10;;;;;;;4.53;42.64;97945.75;5024195;28;20056;-61
2022/01/10 09:52:53;;;;;;;5.07;1.23;;;;;;;4.64;42.67;97935.41;5024326;28;20048;-61
2022/01/10 09:55:18;;;;;;;5.03;1.50;;;;;;;4.63;42.70;97932.00;5023977;28;20499;-62
2022/01/10 09:57:44;;;;;;;3.63;1.30;;;;;;;4.54;42.72;97937.88;5019007;28;20065;-62
2022/01/10 10:00:10;;;;;;;4.88;1.30;;;;;;;4.53;42.20;97941.41;5023577;28;20129;-62
2022/01/10 10:02:37;;;;;;;5.03;1.10;;;;;;;4.57;42.29;97927.34;5003108;28;20148;-61
2022/01/10 10:05:07;;;;;;;5.28;0.90;;;;;;;4.68;41.75;97935.97;4993336;28;20033;-62
2022/01/10 10:07:35;;;;;;;2.60;0.90;;;;;;;5.16;37.70;97918.25;5025586;28;20041;-62
2022/01/10 10:10:07;;;;;;;2.05;0.70;;;;;;;5.27;38.27;97944.91;5022996;28;20083;-62
2022/01/10 10:12:33;;;;;;;3.20;1.05;;;;;;;5.06;39.24;97901.94;5021311;28;20838;-61
2022/01/10 10:14:59;;;;;;;2.30;0.82;;;;;;;5.64;37.38;97934.06;5006174;28;20057;-62
2022/01/10 10:17:28;;;;;;;2.40;0.80;;;;;;;5.85;37.26;97946.94;5005122;28;20118;-62
2022/01/10 10:19:54;;;;;;;2.08;0.70;;;;;;;5.85;36.50;97939.19;5004783;28;20337;-62
2022/01/10 10:22:20;;;;;;;4.55;0.90;;;;;;;5.87;36.95;97937.28;5020692;28;20114;-62
2022/01/10 10:24:48;;;;;;;3.35;0.90;;;;;;;5.63;38.57;97935.03;5025292;28;20032;-62
2022/01/10 10:27:16;;;;;;;2.03;0.60;;;;;;;5.92;36.02;97945.44;5023088;28;20215;-62
2022/01/10 10:29:43;;;;;;;2.22;0.68;;;;;;;6.18;35.07;97955.31;5024656;28;20131;-62
2022/01/10 10:32:09;;;;;;;3.85;0.80;;;;;;;6.11;37.40;97950.69;5019503;28;20159;-62
2022/01/10 10:34:35;;;;;;;2.25;0.60;;;;;;;6.04;37.95;97938.44;4964699;28;20455;-62
2022/01/10 10:37:11;;;;;;;4.28;0.70;;;;;;;6.00;35.71;97950.78;5014567;28;20033;-62
2022/01/10 10:39:43;;;;;;;2.08;0.52;;;;;;;6.07;34.41;97922.69;5013127;28;20037;-62
2022/01/10 10:42:11;;;;;;;2.65;0.50;;;;;;;6.59;34.28;97959.47;5022995;28;20053;-62
2022/01/10 10:44:39;;;;;;;3.72;0.80;;;;;;;6.55;34.47;97937.41;5005401;28;20132;-62
2022/01/10 10:47:05;;;;;;;2.70;0.98;;;;;;;6.68;38.42;97961.22;5018515;28;20345;-62
2022/01/10 10:49:36;;;;;;;1.70;0.50;;;;;;;6.48;36.17;97903.59;5017640;28;20029;-61
2022/01/10 10:52:05;;;;;;;4.07;0.60;;;;;;;6.91;33.39;97953.19;5007767;28;20032;-62
2022/01/10 10:54:32;;;;;;;3.70;0.52;;;;;;;6.86;36.86;97914.84;5019543;28;20045;-62
2022/01/10 10:57:03;;;;;;;1.50;0.30;;;;;;;7.20;39.96;97960.09;5007038;28;20507;-62
2022/01/10 10:59:30;;;;;;;1.45;0.35;;;;;;;7.17;36.04;97943.06;5025063;28;20403;-62
2022/01/10 11:01:57;;;;;;;0.73;0.30;;;;;;;7.32;36.59;97952.03;5021558;28;20499;-62
2022/01/10 11:04:22;;;;;;;2.03;0.38;;;;;;;7.28;37.54;97952.44;5005473;28;20029;-62
2022/01/10 11:06:48;;;;;;;1.15;0.32;;;;;;;7.42;37.41;97964.13;5023784;28;20033;-62
2022/01/10 11:09:14;;;;;;;2.63;0.30;;;;;;;7.22;35.63;97909.84;5023837;28;20021;-61
2022/01/10 11:11:43;;;;;;;2.22;0.50;;;;;;;7.46;35.42;97960.28;5002957;28;20033;-61
2022/01/10 11:14:11;;;;;;;2.40;0.60;;;;;;;7.41;38.12;97963.31;5014853;28;21939;-61
2022/01/10 11:16:41;;;;;;;1.27;0.50;;;;;;;7.46;37.98;97947.38;5029992;28;20433;-61
2022/01/10 11:19:18;;;;;;;1.70;0.60;;;;;;;7.28;36.29;97926.59;5030832;28;20064;-61
2022/01/10 11:22:08;;;;;;;1.23;0.43;;;;;;;7.50;36.93;97956.47;5016294;28;20033;-61
2022/01/10 11:24:40;;;;;;;1.02;0.30;;;;;;;7.67;36.35;97960.91;5050395;28;20045;-61
2022/01/10 11:27:09;;;;;;;0.90;0.30;;;;;;;7.79;33.19;97963.31;5016309;28;20136;-62
2022/01/10 11:29:41;;;;;;;1.23;0.40;;;;;;;7.61;33.88;97937.38;5022766;28;20039;-62
2022/01/10 11:32:07;;;;;;;1.88;0.40;;;;;;;7.82;34.17;97963.03;5020025;28;20048;-62
2022/01/10 11:34:32;;;;;;;0.38;0.20;;;;;;;7.87;30.87;97966.00;5023133;28;20029;-62
2022/01/10 11:36:58;;;;;;;1.35;0.40;;;;;;;7.98;35.26;97968.41;5022976;28;20057;-61